createdAt,value
2017-12-08T00:00:05.363Z,40.63
2017-12-08T00:00:37.442Z,40.72
2017-12-08T00:01:09.468Z,41.02
2017-12-08T00:01:41.467Z,40.92
2017-12-08T00:02:13.513Z,40.72
2017-12-08T00:02:45.557Z,40.82
2017-12-08T00:03:17.589Z,40.72
2017-12-08T00:03:49.681Z,40.92
2017-12-08T00:04:21.754Z,40.82
2017-12-08T00:04:53.756Z,40.82
2017-12-08T00:05:25.795Z,40.72
2017-12-08T00:05:57.829Z,40.82
2017-12-08T00:06:29.886Z,40.72
2017-12-08T00:07:01.947Z,40.82
2017-12-08T00:07:34.149Z,40.82
2017-12-08T00:08:06.227Z,40.72
2017-12-08T00:08:38.244Z,40.63
2017-12-08T00:09:10.324Z,40.82
2017-12-08T00:09:42.357Z,40.82
2017-12-08T00:10:14.430Z,40.72
2017-12-08T00:10:46.476Z,40.92
2017-12-08T00:11:18.509Z,40.92
2017-12-08T00:11:50.563Z,40.82
2017-12-08T00:12:22.616Z,40.72
2017-12-08T00:12:54.638Z,40.82
2017-12-08T00:13:26.674Z,40.92
2017-12-08T00:13:58.713Z,40.82
2017-12-08T00:14:30.830Z,40.72
2017-12-08T00:15:02.874Z,40.82
2017-12-08T00:15:34.902Z,41.11
2017-12-08T00:16:06.966Z,40.92
2017-12-08T00:16:39.937Z,40.92
2017-12-08T00:17:12.018Z,40.92
2017-12-08T00:17:44.092Z,41.02
2017-12-08T00:18:16.254Z,40.92
2017-12-08T00:18:48.302Z,40.92
2017-12-08T00:19:20.341Z,40.82
2017-12-08T00:19:52.400Z,40.92
2017-12-08T00:20:24.418Z,40.92
2017-12-08T00:20:56.537Z,40.92
2017-12-08T00:21:28.590Z,40.82
2017-12-08T00:22:00.622Z,41.02
2017-12-08T00:22:32.652Z,40.92
2017-12-08T00:23:04.675Z,40.92
2017-12-08T00:23:36.689Z,40.92
2017-12-08T00:24:08.782Z,40.92
2017-12-08T00:24:40.866Z,40.92
2017-12-08T00:25:12.890Z,40.72
2017-12-08T00:25:44.932Z,40.82
2017-12-08T00:26:17.789Z,40.92
2017-12-08T00:26:49.850Z,41.02
2017-12-08T00:27:21.917Z,40.72
2017-12-08T00:27:53.916Z,40.92
2017-12-08T00:28:25.971Z,40.82
2017-12-08T00:28:58.024Z,40.72
2017-12-08T00:29:30.060Z,40.99
2017-12-08T00:30:02.123Z,41.02
2017-12-08T00:30:34.164Z,40.82
2017-12-08T00:31:06.223Z,40.82
2017-12-08T00:31:38.260Z,40.82
2017-12-08T00:32:10.338Z,40.72
2017-12-08T00:32:42.385Z,40.82
2017-12-08T00:33:15.020Z,40.9
2017-12-08T00:33:48.020Z,40.82
2017-12-08T00:34:20.051Z,40.92
2017-12-08T00:34:52.063Z,40.51
2017-12-08T00:35:24.177Z,40.72
2017-12-08T00:35:56.248Z,41.09
2017-12-08T00:36:28.272Z,40.9
2017-12-08T00:37:00.324Z,40.82
2017-12-08T00:37:32.342Z,40.72
2017-12-08T00:38:04.385Z,40.82
2017-12-08T00:38:36.451Z,40.82
2017-12-08T00:39:08.525Z,40.9
2017-12-08T00:39:40.678Z,40.53
2017-12-08T00:40:12.745Z,40.92
2017-12-08T00:40:44.807Z,40.92
2017-12-08T00:41:16.858Z,40.92
2017-12-08T00:41:48.910Z,40.82
2017-12-08T00:42:21.423Z,40.53
2017-12-08T00:42:53.481Z,40.9
2017-12-08T00:43:25.533Z,40.82
2017-12-08T00:43:57.564Z,41.11
2017-12-08T00:44:29.613Z,40.82
2017-12-08T00:45:01.661Z,41.09
2017-12-08T00:45:33.719Z,40.82
2017-12-08T00:46:05.726Z,40.82
2017-12-08T00:46:37.743Z,40.82
2017-12-08T00:47:09.788Z,40.99
2017-12-08T00:47:41.817Z,40.92
2017-12-08T00:48:13.858Z,40.8
2017-12-08T00:48:45.926Z,40.99
2017-12-08T00:49:17.988Z,40.82
2017-12-08T00:49:50.066Z,40.92
2017-12-08T00:50:22.139Z,40.8
2017-12-08T00:50:54.279Z,40.72
2017-12-08T00:51:26.357Z,40.72
2017-12-08T00:51:58.394Z,41.02
2017-12-08T00:52:30.402Z,40.8
2017-12-08T00:53:02.434Z,40.92
2017-12-08T00:53:34.558Z,40.8
2017-12-08T00:54:06.697Z,40.92
2017-12-08T00:54:38.754Z,41.02
2017-12-08T00:55:10.787Z,40.72
2017-12-08T00:55:42.765Z,40.53
2017-12-08T00:56:14.836Z,40.9
2017-12-08T00:56:46.862Z,40.72
2017-12-08T00:57:18.942Z,40.92
2017-12-08T00:57:51.046Z,40.99
2017-12-08T00:58:23.091Z,40.92
2017-12-08T00:58:55.136Z,40.82
2017-12-08T00:59:27.214Z,40.8
2017-12-08T00:59:59.268Z,40.9
2017-12-08T01:00:31.267Z,41.02
2017-12-08T01:01:03.289Z,40.82
2017-12-08T01:01:35.343Z,40.92
2017-12-08T01:02:07.383Z,40.92
2017-12-08T01:02:39.435Z,40.99
2017-12-08T01:03:11.476Z,41.02
2017-12-08T01:03:43.503Z,40.82
2017-12-08T01:04:15.539Z,40.82
2017-12-08T01:04:47.597Z,40.92
2017-12-08T01:05:19.640Z,40.72
2017-12-08T01:05:51.687Z,40.72
2017-12-08T01:06:23.705Z,40.92
2017-12-08T01:06:55.939Z,40.53
2017-12-08T01:07:28.063Z,40.8
2017-12-08T01:08:00.142Z,40.92
2017-12-08T01:08:32.192Z,40.92
2017-12-08T01:09:04.250Z,40.8
2017-12-08T01:09:36.325Z,40.9
2017-12-08T01:10:08.405Z,41.02
2017-12-08T01:10:40.425Z,40.82
2017-12-08T01:11:12.490Z,40.92
2017-12-08T01:11:44.510Z,40.92
2017-12-08T01:20:37.273Z,41.02
2017-12-08T01:21:09.357Z,40.9
2017-12-08T01:21:41.414Z,41.02
2017-12-08T01:22:14.233Z,40.8
2017-12-08T01:22:46.297Z,41.02
2017-12-08T01:23:18.318Z,41.02
2017-12-08T01:23:50.353Z,40.9
2017-12-08T01:24:22.392Z,40.99
2017-12-08T01:24:54.457Z,40.9
2017-12-08T01:25:26.492Z,40.7
2017-12-08T01:25:58.519Z,40.51
2017-12-08T01:26:30.586Z,40.82
2017-12-08T01:27:02.647Z,40.82
2017-12-08T01:27:34.724Z,40.8
2017-12-08T01:28:06.748Z,40.7
2017-12-08T01:28:38.821Z,40.8
2017-12-08T01:29:10.857Z,40.82
2017-12-08T01:29:42.911Z,41.02
2017-12-08T01:30:14.986Z,40.99
2017-12-08T01:30:47.025Z,40.8
2017-12-08T01:31:19.059Z,40.9
2017-12-08T01:31:51.152Z,40.8
2017-12-08T01:32:23.215Z,40.72
2017-12-08T01:32:55.252Z,40.82
2017-12-08T01:33:27.325Z,40.82
2017-12-08T01:33:59.374Z,40.72
2017-12-08T01:34:31.416Z,40.9
2017-12-08T01:35:03.470Z,40.9
2017-12-08T01:35:35.532Z,40.9
2017-12-08T01:36:07.578Z,41.11
2017-12-08T01:36:39.623Z,40.8
2017-12-08T01:37:11.672Z,40.63
2017-12-08T01:37:43.722Z,40.99
2017-12-08T01:38:15.772Z,40.82
2017-12-08T01:38:47.799Z,40.82
2017-12-08T01:39:19.846Z,40.8
2017-12-08T01:39:51.924Z,40.7
2017-12-08T01:40:23.978Z,40.82
2017-12-08T01:40:56.029Z,40.9
2017-12-08T01:41:28.081Z,40.92
2017-12-08T01:42:00.122Z,40.8
2017-12-08T01:42:32.224Z,40.72
2017-12-08T01:43:04.316Z,40.8
2017-12-08T01:43:36.372Z,40.92
2017-12-08T01:44:08.388Z,40.9
2017-12-08T01:44:40.433Z,40.7
2017-12-08T01:45:12.552Z,40.7
2017-12-08T01:45:44.588Z,40.9
2017-12-08T01:46:16.625Z,40.72
2017-12-08T01:46:48.728Z,40.8
2017-12-08T01:47:20.868Z,40.99
2017-12-08T01:47:52.940Z,40.9
2017-12-08T01:48:24.971Z,40.8
2017-12-08T01:48:57.038Z,40.9
2017-12-08T01:49:29.103Z,40.9
2017-12-08T01:50:01.345Z,40.8
2017-12-08T01:50:33.406Z,40.9
2017-12-08T01:51:05.428Z,40.8
2017-12-08T01:51:37.485Z,40.9
2017-12-08T01:52:09.552Z,40.7
2017-12-08T01:52:41.582Z,40.8
2017-12-08T01:53:13.649Z,40.9
2017-12-08T01:53:45.723Z,40.8
2017-12-08T01:54:17.713Z,40.9
2017-12-08T01:54:49.743Z,40.9
2017-12-08T01:55:21.782Z,40.9
2017-12-08T01:55:53.857Z,40.8
2017-12-08T01:56:25.915Z,40.9
2017-12-08T01:56:57.958Z,40.9
2017-12-08T01:57:30.688Z,41.09
2017-12-08T01:58:02.783Z,40.9
2017-12-08T01:58:34.870Z,40.9
2017-12-08T01:59:06.989Z,40.8
2017-12-08T01:59:39.010Z,40.9
2017-12-08T02:00:11.097Z,40.9
2017-12-08T02:00:43.126Z,40.9
2017-12-08T02:01:15.208Z,40.99
2017-12-08T02:01:47.308Z,40.9
2017-12-08T02:02:19.396Z,41.09
2017-12-08T02:02:51.474Z,40.9
2017-12-08T02:03:23.554Z,41.09
2017-12-08T02:03:55.625Z,40.8
2017-12-08T02:04:27.677Z,41.09
2017-12-08T02:04:59.736Z,40.7
2017-12-08T02:05:31.771Z,40.99
2017-12-08T02:06:03.847Z,40.8
2017-12-08T02:06:35.901Z,41.09
2017-12-08T02:07:07.984Z,40.9
2017-12-08T02:07:40.013Z,40.99
2017-12-08T02:08:12.054Z,40.8
2017-12-08T02:08:44.061Z,40.9
2017-12-08T02:09:16.130Z,40.99
2017-12-08T02:09:48.181Z,40.9
2017-12-08T02:10:20.226Z,41.09
2017-12-08T02:10:52.306Z,40.9
2017-12-08T02:11:24.350Z,40.8
2017-12-08T02:11:56.455Z,40.9
2017-12-08T02:12:28.507Z,40.9
2017-12-08T02:13:00.556Z,40.7
2017-12-08T02:13:32.634Z,40.8
2017-12-08T02:14:04.669Z,40.8
2017-12-08T02:14:36.701Z,40.9
2017-12-08T02:15:08.786Z,40.8
2017-12-08T02:15:40.860Z,40.8
2017-12-08T02:16:12.956Z,40.99
2017-12-08T02:16:44.976Z,40.9
2017-12-08T02:17:17.031Z,40.7
2017-12-08T02:17:49.113Z,40.9
2017-12-08T02:18:21.174Z,40.7
2017-12-08T02:18:53.205Z,40.9
2017-12-08T02:19:25.238Z,40.8
2017-12-08T02:19:57.375Z,40.99
2017-12-08T02:20:29.459Z,40.9
2017-12-08T02:21:01.507Z,40.7
2017-12-08T02:21:33.516Z,40.7
2017-12-08T02:22:05.562Z,40.7
2017-12-08T02:22:37.708Z,40.8
2017-12-08T02:23:09.764Z,40.9
2017-12-08T02:23:41.818Z,40.7
2017-12-08T02:24:13.852Z,40.8
2017-12-08T02:24:45.957Z,40.8
2017-12-08T02:25:17.993Z,40.9
2017-12-08T02:25:50.042Z,40.99
2017-12-08T02:26:22.057Z,40.7
2017-12-08T02:26:54.130Z,40.61
2017-12-08T02:27:26.204Z,40.7
2017-12-08T02:27:58.281Z,40.7
2017-12-08T02:28:30.341Z,40.7
2017-12-08T02:29:02.372Z,40.9
2017-12-08T02:29:34.417Z,40.51
2017-12-08T02:30:06.497Z,40.99
2017-12-08T02:30:38.521Z,40.51
2017-12-08T02:31:10.559Z,40.99
2017-12-08T02:31:42.624Z,40.9
2017-12-08T02:32:14.701Z,40.61
2017-12-08T02:32:46.777Z,40.7
2017-12-08T02:33:18.852Z,40.8
2017-12-08T02:33:50.916Z,40.61
2017-12-08T02:34:22.976Z,40.7
2017-12-08T02:34:55.041Z,40.9
2017-12-08T02:35:28.012Z,40.9
2017-12-08T02:36:00.057Z,40.99
2017-12-08T02:36:32.069Z,40.7
2017-12-08T02:37:04.128Z,40.7
2017-12-08T02:37:36.216Z,40.61
2017-12-08T02:38:08.274Z,40.7
2017-12-08T02:38:40.315Z,41.09
2017-12-08T02:39:12.359Z,40.8
2017-12-08T02:39:44.405Z,40.61
2017-12-08T02:40:16.520Z,40.99
2017-12-08T02:40:49.129Z,40.7
2017-12-08T02:41:21.297Z,40.99
2017-12-08T02:41:53.386Z,40.99
2017-12-08T02:42:25.452Z,40.7
2017-12-08T02:42:57.490Z,40.7
2017-12-08T02:43:29.624Z,40.7
2017-12-08T02:44:01.673Z,40.51
2017-12-08T02:44:33.679Z,40.8
2017-12-08T02:45:05.737Z,40.61
2017-12-08T02:45:37.800Z,40.8
2017-12-08T02:46:09.867Z,40.8
2017-12-08T02:46:41.917Z,40.61
2017-12-08T02:47:13.956Z,40.8
2017-12-08T02:47:46.016Z,40.7
2017-12-08T02:48:18.062Z,40.99
2017-12-08T02:48:50.107Z,40.9
2017-12-08T02:49:22.135Z,40.7
2017-12-08T02:49:54.179Z,40.7
2017-12-08T02:50:26.218Z,40.61
2017-12-08T02:50:58.262Z,40.7
2017-12-08T02:51:30.348Z,40.7
2017-12-08T02:52:02.384Z,40.61
2017-12-08T02:52:34.460Z,40.9
2017-12-08T02:53:06.530Z,40.8
2017-12-08T02:53:38.605Z,40.9
2017-12-08T02:54:10.670Z,40.9
2017-12-08T02:54:42.693Z,40.9
2017-12-08T02:55:14.743Z,40.7
2017-12-08T02:55:47.371Z,40.7
2017-12-08T02:56:19.432Z,40.99
2017-12-08T02:56:51.521Z,40.9
2017-12-08T02:57:23.598Z,40.8
2017-12-08T02:57:55.672Z,40.8
2017-12-08T02:58:27.742Z,40.8
2017-12-08T02:58:59.786Z,40.7
2017-12-08T02:59:31.841Z,40.99
2017-12-08T03:00:04.017Z,40.9
2017-12-08T03:00:36.098Z,40.99
2017-12-08T03:01:08.136Z,40.7
2017-12-08T03:01:40.218Z,40.61
2017-12-08T03:02:12.220Z,40.7
2017-12-08T03:02:44.251Z,40.99
2017-12-08T03:03:16.247Z,40.9
2017-12-08T03:03:48.299Z,40.61
2017-12-08T03:04:20.353Z,40.8
2017-12-08T03:04:52.394Z,40.7
2017-12-08T03:05:24.443Z,41.09
2017-12-08T03:05:56.541Z,40.61
2017-12-08T03:06:28.568Z,40.9
2017-12-08T03:07:00.638Z,40.7
2017-12-08T03:07:32.706Z,40.9
2017-12-08T03:08:04.755Z,40.61
2017-12-08T03:08:36.872Z,40.9
2017-12-08T03:09:08.852Z,40.61
2017-12-08T03:09:40.938Z,40.7
2017-12-08T03:10:12.969Z,40.8
2017-12-08T03:10:45.154Z,40.8
2017-12-08T03:11:17.229Z,40.61
2017-12-08T03:11:49.259Z,40.9
2017-12-08T03:12:21.305Z,40.8
2017-12-08T03:12:53.397Z,40.61
2017-12-08T03:13:25.500Z,40.7
2017-12-08T03:13:57.667Z,40.8
2017-12-08T03:14:29.668Z,40.7
2017-12-08T03:15:01.745Z,40.51
2017-12-08T03:15:33.835Z,40.51
2017-12-08T03:16:05.829Z,40.9
2017-12-08T03:16:37.795Z,40.51
2017-12-08T03:17:09.874Z,40.7
2017-12-08T03:17:42.054Z,40.51
2017-12-08T03:18:14.107Z,40.51
2017-12-08T03:18:46.151Z,40.51
2017-12-08T03:19:18.204Z,40.9
2017-12-08T03:19:50.454Z,40.42
2017-12-08T03:20:22.503Z,40.42
2017-12-08T03:20:54.579Z,40.61
2017-12-08T03:21:26.622Z,40.51
2017-12-08T03:21:58.654Z,40.61
2017-12-08T03:22:30.724Z,40.61
2017-12-08T03:23:03.613Z,40.7
2017-12-08T03:23:36.413Z,40.32
2017-12-08T03:24:08.446Z,40.51
2017-12-08T03:24:40.540Z,40.7
2017-12-08T03:25:12.707Z,40.61
2017-12-08T03:25:45.525Z,40.42
2017-12-08T03:26:17.575Z,40.42
2017-12-08T03:26:49.716Z,40.51
2017-12-08T03:27:21.756Z,40.42
2017-12-08T03:27:53.804Z,40.51
2017-12-08T03:28:25.850Z,40.61
2017-12-08T03:28:57.908Z,40.51
2017-12-08T03:29:29.925Z,40.32
2017-12-08T03:30:02.009Z,40.42
2017-12-08T03:30:34.070Z,40.42
2017-12-08T03:31:06.252Z,40.61
2017-12-08T03:31:38.366Z,40.42
2017-12-08T03:32:10.418Z,40.51
2017-12-08T03:32:42.482Z,40.61
2017-12-08T03:33:14.548Z,40.42
2017-12-08T03:33:46.558Z,40.22
2017-12-08T03:34:18.629Z,40.51
2017-12-08T03:34:50.656Z,40.61
2017-12-08T03:35:22.724Z,40.51
2017-12-08T03:35:54.773Z,40.12
2017-12-08T03:36:26.828Z,40.51
2017-12-08T03:36:58.873Z,40.42
2017-12-08T03:37:31.030Z,40.12
2017-12-08T03:38:03.111Z,40.22
2017-12-08T03:38:35.190Z,40.32
2017-12-08T03:39:07.256Z,40.22
2017-12-08T03:39:39.268Z,40.51
2017-12-08T03:40:11.364Z,40.32
2017-12-08T03:40:43.413Z,40.32
2017-12-08T03:41:15.486Z,40.42
2017-12-08T03:41:47.491Z,40.32
2017-12-08T03:42:19.533Z,40.22
2017-12-08T03:42:51.578Z,40.32
2017-12-08T03:43:23.610Z,40.32
2017-12-08T03:43:55.676Z,40.42
2017-12-08T03:44:27.722Z,40.32
2017-12-08T03:44:59.754Z,40.32
2017-12-08T03:45:32.727Z,40.22
2017-12-08T03:46:04.714Z,40.42
2017-12-08T03:46:36.742Z,40.32
2017-12-08T03:47:08.850Z,40.22
2017-12-08T03:47:40.900Z,40.32
2017-12-08T03:48:12.958Z,40.32
2017-12-08T03:48:45.010Z,40.22
2017-12-08T03:49:17.079Z,40.22
2017-12-08T03:49:49.183Z,40.22
2017-12-08T03:50:21.190Z,40.51
2017-12-08T03:50:53.263Z,40.22
2017-12-08T03:51:25.900Z,40.12
2017-12-08T03:51:57.938Z,40.32
2017-12-08T03:52:29.990Z,40.22
2017-12-08T03:53:02.033Z,40.22
2017-12-08T03:53:34.102Z,40.32
2017-12-08T03:54:06.177Z,40.42
2017-12-08T03:54:38.226Z,40.22
2017-12-08T03:55:10.313Z,40.22
2017-12-08T03:55:42.370Z,40.22
2017-12-08T03:56:14.409Z,40.12
2017-12-08T03:56:46.441Z,40.42
2017-12-08T03:57:18.499Z,40.32
2017-12-08T03:57:50.519Z,40.42
2017-12-08T03:58:22.566Z,40.12
2017-12-08T03:58:54.642Z,40.61
2017-12-08T03:59:26.653Z,40.32
2017-12-08T03:59:58.692Z,40.32
2017-12-08T04:00:30.724Z,40.42
2017-12-08T04:01:02.843Z,40.22
2017-12-08T04:01:35.008Z,40.32
2017-12-08T04:02:07.082Z,40.61
2017-12-08T04:02:39.159Z,40.22
2017-12-08T04:03:11.218Z,40.51
2017-12-08T04:03:43.250Z,40.42
2017-12-08T04:04:15.304Z,40.22
2017-12-08T04:04:47.336Z,40.61
2017-12-08T04:05:19.408Z,40.51
2017-12-08T04:05:51.435Z,40.51
2017-12-08T04:06:24.438Z,40.42
2017-12-08T04:06:56.475Z,40.7
2017-12-08T04:07:28.529Z,40.03
2017-12-08T04:08:00.574Z,40.7
2017-12-08T04:08:32.630Z,40.7
2017-12-08T04:09:04.704Z,40.51
2017-12-08T04:09:36.839Z,40.7
2017-12-08T04:10:08.913Z,40.51
2017-12-08T04:10:41.017Z,40.32
2017-12-08T04:11:13.081Z,40.51
2017-12-08T04:11:48.907Z,40.32
2017-12-08T04:12:20.923Z,39.74
2017-12-08T04:12:52.985Z,39.94
2017-12-08T04:13:25.027Z,40.32
2017-12-08T04:13:57.075Z,39.74
2017-12-08T04:14:29.091Z,40.32
2017-12-08T04:15:01.140Z,39.84
2017-12-08T04:15:33.160Z,40.42
2017-12-08T04:16:05.228Z,40.32
2017-12-08T04:16:37.655Z,39.94
2017-12-08T04:17:09.811Z,40.32
2017-12-08T04:17:41.932Z,40.32
2017-12-08T04:18:14.118Z,40.32
2017-12-08T04:18:46.164Z,40.32
2017-12-08T04:19:18.180Z,39.84
2017-12-08T04:19:50.231Z,40.32
2017-12-08T04:20:22.293Z,39.84
2017-12-08T04:20:54.288Z,40.12
2017-12-08T04:21:26.365Z,39.94
2017-12-08T04:21:59.274Z,39.84
2017-12-08T04:22:31.310Z,40.22
2017-12-08T04:23:03.392Z,40.03
2017-12-08T04:23:35.468Z,39.84
2017-12-08T04:24:07.479Z,39.94
2017-12-08T04:24:39.545Z,39.94
2017-12-08T04:25:11.605Z,39.94
2017-12-08T04:25:43.700Z,39.94
2017-12-08T04:26:15.842Z,39.94
2017-12-08T04:26:47.919Z,39.94
2017-12-08T04:27:19.935Z,39.94
2017-12-08T04:27:51.996Z,40.32
2017-12-08T04:28:24.111Z,39.94
2017-12-08T04:28:56.166Z,40.32
2017-12-08T04:29:28.244Z,40.03
2017-12-08T04:30:00.346Z,40.22
2017-12-08T04:30:32.505Z,40.42
2017-12-08T04:31:04.570Z,39.94
2017-12-08T04:31:36.778Z,39.94
2017-12-08T04:32:08.824Z,40.22
2017-12-08T04:32:40.848Z,40.22
2017-12-08T04:33:12.915Z,39.94
2017-12-08T04:33:44.983Z,40.2
2017-12-08T04:34:17.037Z,40.22
2017-12-08T04:34:49.093Z,40.22
2017-12-08T04:35:21.115Z,40.22
2017-12-08T04:35:53.312Z,40.03
2017-12-08T04:36:25.840Z,40.12
2017-12-08T04:36:57.900Z,40.32
2017-12-08T04:37:29.955Z,40.22
2017-12-08T04:38:01.948Z,40.22
2017-12-08T04:38:33.991Z,40.42
2017-12-08T04:39:06.031Z,40.22
2017-12-08T04:39:38.115Z,40.12
2017-12-08T04:40:10.140Z,40.22
2017-12-08T04:40:42.179Z,40.12
2017-12-08T04:41:14.240Z,40.22
2017-12-08T04:41:46.318Z,40.12
2017-12-08T04:42:18.370Z,40.22
2017-12-08T04:42:50.418Z,40.12
2017-12-08T04:43:22.537Z,40.12
2017-12-08T04:43:54.697Z,40.12
2017-12-08T04:44:26.745Z,40.22
2017-12-08T04:44:58.824Z,40.11
2017-12-08T04:45:30.899Z,40.12
2017-12-08T04:46:02.978Z,40.22
2017-12-08T04:46:35.007Z,40.01
2017-12-08T04:47:07.077Z,40.12
2017-12-08T04:47:39.084Z,40.12
2017-12-08T04:48:11.129Z,40.12
2017-12-08T04:48:43.335Z,40.11
2017-12-08T04:49:15.376Z,40.03
2017-12-08T04:49:47.432Z,40.12
2017-12-08T04:50:19.491Z,40.12
2017-12-08T04:50:51.471Z,40.11
2017-12-08T04:51:24.350Z,40.03
2017-12-08T04:51:56.375Z,40.01
2017-12-08T04:52:28.430Z,40.12
2017-12-08T04:53:00.445Z,40.03
2017-12-08T04:53:32.447Z,40.12
2017-12-08T04:54:04.489Z,40.12
2017-12-08T04:54:36.524Z,40.32
2017-12-08T04:55:08.670Z,40.03
2017-12-08T04:55:40.703Z,40.03
2017-12-08T04:56:12.760Z,40.03
2017-12-08T04:56:44.845Z,40.12
2017-12-08T04:57:16.884Z,40.32
2017-12-08T04:57:48.935Z,40.12
2017-12-08T04:58:21.042Z,39.94
2017-12-08T04:58:53.090Z,40.11
2017-12-08T04:59:25.158Z,40.01
2017-12-08T04:59:57.222Z,40.01
2017-12-08T05:00:29.259Z,40.01
2017-12-08T05:01:01.313Z,40.01
2017-12-08T05:01:33.359Z,40.11
2017-12-08T05:02:05.430Z,40.11
2017-12-08T05:02:37.478Z,40.2
2017-12-08T05:03:09.513Z,40.11
2017-12-08T05:03:44.455Z,40.2
2017-12-08T05:04:16.512Z,40.3
2017-12-08T05:04:48.566Z,40.01
2017-12-08T05:05:20.630Z,40.11
2017-12-08T05:05:52.720Z,40.11
2017-12-08T05:06:24.857Z,40.01
2017-12-08T05:06:56.901Z,40.11
2017-12-08T05:07:28.958Z,40.11
2017-12-08T05:08:00.972Z,40.11
2017-12-08T05:08:33.004Z,40.11
2017-12-08T05:09:05.055Z,40.01
2017-12-08T05:09:37.114Z,40.11
2017-12-08T05:10:09.195Z,40.3
2017-12-08T05:10:41.311Z,40.3
2017-12-08T05:11:13.344Z,40.2
2017-12-08T05:11:45.413Z,40.11
2017-12-08T05:12:17.556Z,40.11
2017-12-08T05:12:49.727Z,40.2
2017-12-08T05:13:21.749Z,40.2
2017-12-08T05:13:53.776Z,40.11
2017-12-08T05:14:25.847Z,40.01
2017-12-08T05:14:57.910Z,40.11
2017-12-08T05:15:29.912Z,40.01
2017-12-08T05:16:01.990Z,40.11
2017-12-08T05:16:34.033Z,40.3
2017-12-08T05:17:06.058Z,40.11
2017-12-08T05:17:38.086Z,40.3
2017-12-08T05:18:10.143Z,40.11
2017-12-08T05:18:42.209Z,40.11
2017-12-08T05:19:14.275Z,40.01
2017-12-08T05:19:46.321Z,40.11
2017-12-08T05:20:18.343Z,40.11
2017-12-08T05:20:50.361Z,40.01
2017-12-08T05:21:22.379Z,40.01
2017-12-08T05:21:55.252Z,40.01
2017-12-08T05:22:27.317Z,40.01
2017-12-08T05:22:59.393Z,40.01
2017-12-08T05:23:31.429Z,40.01
2017-12-08T05:24:03.416Z,40.11
2017-12-08T05:24:35.476Z,40.01
2017-12-08T05:25:07.544Z,40.11
2017-12-08T05:25:39.619Z,40.01
2017-12-08T05:26:11.682Z,40.01
2017-12-08T05:26:43.702Z,40.01
2017-12-08T05:27:15.771Z,40.01
2017-12-08T05:27:47.819Z,40.01
2017-12-08T05:28:19.889Z,40.01
2017-12-08T05:28:51.985Z,40.11
2017-12-08T05:29:24.079Z,40.11
2017-12-08T05:29:56.250Z,40.11
2017-12-08T05:30:28.278Z,39.91
2017-12-08T05:31:00.339Z,40.3
2017-12-08T05:31:32.400Z,40.11
2017-12-08T05:32:04.469Z,40.11
2017-12-08T05:32:36.498Z,40.11
2017-12-08T05:33:08.545Z,40.11
2017-12-08T05:33:40.612Z,40.11
2017-12-08T05:34:12.679Z,40.2
2017-12-08T05:34:44.769Z,40.11
2017-12-08T05:35:16.824Z,40.11
2017-12-08T05:35:48.883Z,40.11
2017-12-08T05:36:20.949Z,40.3
2017-12-08T05:36:52.987Z,40.11
2017-12-08T05:37:25.050Z,40.11
2017-12-08T05:37:57.122Z,40.11
2017-12-08T05:38:30.129Z,40.11
2017-12-08T05:39:02.193Z,40.2
2017-12-08T05:39:34.268Z,40.11
2017-12-08T05:40:06.345Z,40.2
2017-12-08T05:40:39.198Z,40.2
2017-12-08T05:41:11.259Z,40.2
2017-12-08T05:41:43.314Z,40.2
2017-12-08T05:42:15.397Z,40.2
2017-12-08T05:42:47.500Z,40.2
2017-12-08T05:43:19.566Z,40.2
2017-12-08T05:43:51.641Z,40.3
2017-12-08T05:44:23.732Z,40.2
2017-12-08T05:44:55.787Z,40.2
2017-12-08T05:45:27.840Z,40.11
2017-12-08T05:45:59.880Z,40.3
2017-12-08T05:46:31.976Z,40.11
2017-12-08T05:47:04.028Z,40.39
2017-12-08T05:47:36.104Z,40.01
2017-12-08T05:48:08.148Z,40.3
2017-12-08T05:48:40.155Z,40.11
2017-12-08T05:49:12.206Z,39.82
2017-12-08T05:49:44.277Z,40.3
2017-12-08T05:50:16.454Z,40.3
2017-12-08T05:50:48.524Z,40.2
2017-12-08T05:51:20.576Z,40.2
2017-12-08T05:51:52.619Z,40.01
2017-12-08T05:52:24.627Z,39.82
2017-12-08T05:52:56.707Z,39.82
2017-12-08T05:53:28.759Z,40.11
2017-12-08T05:54:00.755Z,39.82
2017-12-08T05:54:32.835Z,39.82
2017-12-08T05:55:04.923Z,39.82
2017-12-08T05:55:37.035Z,39.82
2017-12-08T05:56:09.095Z,39.82
2017-12-08T05:56:41.138Z,39.91
2017-12-08T05:57:13.267Z,39.91
2017-12-08T05:57:45.318Z,39.82
2017-12-08T05:58:17.364Z,40.2
2017-12-08T05:58:49.392Z,39.82
2017-12-08T05:59:21.403Z,39.82
2017-12-08T05:59:53.436Z,40.2
2017-12-08T06:00:25.475Z,39.91
2017-12-08T06:00:57.519Z,40.2
2017-12-08T06:01:29.550Z,39.91
2017-12-08T06:02:01.624Z,39.82
2017-12-08T06:02:33.708Z,39.91
2017-12-08T06:03:05.817Z,39.91
2017-12-08T06:03:37.898Z,40.11
2017-12-08T06:04:09.940Z,39.91
2017-12-08T06:04:41.949Z,39.82
2017-12-08T06:05:14.034Z,40.2
2017-12-08T06:05:46.100Z,39.91
2017-12-08T06:06:18.107Z,40.2
2017-12-08T06:06:50.185Z,39.91
2017-12-08T06:07:22.218Z,39.91
2017-12-08T06:07:54.296Z,39.91
2017-12-08T06:08:26.332Z,40.01
2017-12-08T06:08:58.349Z,39.82
2017-12-08T06:09:30.445Z,40.11
2017-12-08T06:10:02.474Z,39.91
2017-12-08T06:10:35.303Z,39.72
2017-12-08T06:11:07.353Z,39.91
2017-12-08T06:11:39.429Z,39.91
2017-12-08T06:12:11.465Z,40.3
2017-12-08T06:12:43.581Z,39.91
2017-12-08T06:13:15.619Z,40.3
2017-12-08T06:13:47.711Z,39.91
2017-12-08T06:14:19.846Z,40.2
2017-12-08T06:14:51.894Z,40.2
2017-12-08T06:15:23.967Z,40.2
2017-12-08T06:15:55.985Z,40.2
2017-12-08T06:16:28.032Z,40.2
2017-12-08T06:17:00.035Z,39.91
2017-12-08T06:17:32.087Z,39.82
2017-12-08T06:18:04.180Z,40.2
2017-12-08T06:18:36.237Z,39.82
2017-12-08T06:19:08.291Z,40.11
2017-12-08T06:19:40.339Z,40.2
2017-12-08T06:20:12.370Z,39.82
2017-12-08T06:20:44.526Z,39.91
2017-12-08T06:21:16.550Z,40.2
2017-12-08T06:21:48.598Z,40.2
2017-12-08T06:22:20.721Z,40.11
2017-12-08T06:22:52.735Z,40.11
2017-12-08T06:23:24.810Z,39.82
2017-12-08T06:23:56.887Z,40.2
2017-12-08T06:24:28.877Z,39.82
2017-12-08T06:25:01.023Z,39.91
2017-12-08T06:25:33.167Z,40.01
2017-12-08T06:26:05.258Z,40.01
2017-12-08T06:26:37.349Z,40.2
2017-12-08T06:27:09.382Z,40.11
2017-12-08T06:27:41.454Z,39.91
2017-12-08T06:28:13.586Z,40.3
2017-12-08T06:28:45.740Z,40.2
2017-12-08T06:29:17.907Z,39.82
2017-12-08T06:29:49.966Z,40.01
2017-12-08T06:30:22.025Z,40.11
2017-12-08T06:30:54.103Z,39.82
2017-12-08T06:31:26.182Z,40.2
2017-12-08T06:31:58.250Z,39.82
2017-12-08T06:32:30.313Z,39.91
2017-12-08T06:33:02.386Z,40.11
2017-12-08T06:33:34.454Z,40.11
2017-12-08T06:34:06.482Z,40.2
2017-12-08T06:34:38.567Z,39.91
2017-12-08T06:35:10.705Z,40.11
2017-12-08T06:35:42.828Z,40.11
2017-12-08T06:36:14.914Z,39.82
2017-12-08T06:36:46.922Z,40.3
2017-12-08T06:37:18.998Z,40.11
2017-12-08T06:37:51.063Z,40.2
2017-12-08T06:38:23.060Z,40.01
2017-12-08T06:38:55.085Z,40.11
2017-12-08T06:39:27.145Z,40.11
2017-12-08T06:39:59.139Z,40.11
2017-12-08T06:40:31.182Z,40.3
2017-12-08T06:41:03.265Z,39.82
2017-12-08T06:41:35.292Z,40.11
2017-12-08T06:42:07.603Z,40.01
2017-12-08T06:42:40.001Z,40.01
2017-12-08T06:43:12.042Z,40.2
2017-12-08T06:43:44.202Z,40.01
2017-12-08T06:44:16.213Z,39.91
2017-12-08T06:44:48.278Z,40.3
2017-12-08T06:45:20.384Z,40.2
2017-12-08T06:45:52.443Z,40.2
2017-12-08T06:46:24.525Z,40.01
2017-12-08T06:46:56.542Z,39.72
2017-12-08T06:47:28.601Z,39.82
2017-12-08T06:48:00.617Z,39.72
2017-12-08T06:48:32.756Z,40.11
2017-12-08T06:49:05.647Z,40.01
2017-12-08T06:49:37.704Z,39.91
2017-12-08T06:50:09.752Z,40.11
2017-12-08T06:50:41.807Z,39.82
2017-12-08T06:51:13.853Z,40.11
2017-12-08T06:51:45.831Z,40.01
2017-12-08T06:52:18.001Z,39.82
2017-12-08T06:52:50.016Z,40.01
2017-12-08T06:53:25.932Z,40.01
2017-12-08T06:53:57.961Z,39.91
2017-12-08T06:54:30.031Z,39.91
2017-12-08T06:55:02.081Z,39.91
2017-12-08T06:55:34.244Z,39.91
2017-12-08T06:56:06.380Z,39.82
2017-12-08T06:56:38.384Z,40.11
2017-12-08T06:57:10.437Z,40.11
2017-12-08T06:57:42.496Z,39.82
2017-12-08T06:58:14.636Z,39.91
2017-12-08T06:58:46.778Z,39.91
2017-12-08T06:59:18.988Z,39.62
2017-12-08T06:59:50.991Z,39.82
2017-12-08T07:00:23.129Z,39.72
2017-12-08T07:00:55.175Z,40.11
2017-12-08T07:01:27.229Z,39.82
2017-12-08T07:02:00.174Z,39.82
2017-12-08T07:02:32.241Z,39.82
2017-12-08T07:03:04.267Z,39.91
2017-12-08T07:03:37.426Z,39.82
2017-12-08T07:04:09.453Z,39.72
2017-12-08T07:04:41.511Z,39.82
2017-12-08T07:05:13.570Z,39.62